sensor_id;sensor_type;location;lat;lon;timestamp;P1;durP1;ratioP1;P2;durP2;ratioP2
2638;SDS011;1329;51.384;7.122;2023-04-24T00:01:51;1.30;;;1.00;;
2638;SDS011;1329;51.384;7.122;2023-04-24T00:04:20;1.40;;;1.20;;
2638;SDS011;1329;51.384;7.122;2023-04-24T00:07:16;1.55;;;1.20;;
2638;SDS011;1329;51.384;7.122;2023-04-24T00:09:55;1.47;;;1.10;;
2638;SDS011;1329;51.384;7.122;2023-04-24T00:12:34;1.33;;;1.23;;
2638;SDS011;1329;51.384;7.122;2023-04-24T00:15:12;1.30;;;1.20;;
2638;SDS011;1329;51.384;7.122;2023-04-24T00:17:46;1.67;;;1.40;;
2638;SDS011;1329;51.384;7.122;2023-04-24T00:20:27;1.40;;;1.30;;
2638;SDS011;1329;51.384;7.122;2023-04-24T00:23:02;1.37;;;1.27;;
2638;SDS011;1329;51.384;7.122;2023-04-24T00:25:55;1.50;;;1.40;;
2638;SDS011;1329;51.384;7.122;2023-04-24T00:28:24;1.47;;;1.37;;
2638;SDS011;1329;51.384;7.122;2023-04-24T00:31:00;1.60;;;1.50;;
2638;SDS011;1329;51.384;7.122;2023-04-24T00:33:32;1.70;;;1.50;;
2638;SDS011;1329;51.384;7.122;2023-04-24T00:36:05;2.57;;;1.50;;
2638;SDS011;1329;51.384;7.122;2023-04-24T00:38:37;1.60;;;1.50;;
2638;SDS011;1329;51.384;7.122;2023-04-24T00:41:15;1.67;;;1.50;;
2638;SDS011;1329;51.384;7.122;2023-04-24T00:43:50;2.07;;;1.60;;
2638;SDS011;1329;51.384;7.122;2023-04-24T00:46:26;1.50;;;1.40;;
2638;SDS011;1329;51.384;7.122;2023-04-24T00:48:57;1.97;;;1.87;;
2638;SDS011;1329;51.384;7.122;2023-04-24T00:51:29;2.03;;;1.93;;
2638;SDS011;1329;51.384;7.122;2023-04-24T00:54:26;2.10;;;1.60;;
2638;SDS011;1329;51.384;7.122;2023-04-24T00:57:37;1.77;;;1.67;;
2638;SDS011;1329;51.384;7.122;2023-04-24T01:00:13;2.07;;;1.97;;
2638;SDS011;1329;51.384;7.122;2023-04-24T01:05:39;2.40;;;2.20;;
2638;SDS011;1329;51.384;7.122;2023-04-24T01:08:07;1.97;;;1.87;;
2638;SDS011;1329;51.384;7.122;2023-04-24T01:10:34;2.23;;;2.13;;
2638;SDS011;1329;51.384;7.122;2023-04-24T01:13:02;2.90;;;2.00;;
2638;SDS011;1329;51.384;7.122;2023-04-24T01:15:31;2.03;;;1.83;;
2638;SDS011;1329;51.384;7.122;2023-04-24T01:18:01;1.97;;;1.87;;
2638;SDS011;1329;51.384;7.122;2023-04-24T01:20:30;2.30;;;2.10;;
2638;SDS011;1329;51.384;7.122;2023-04-24T01:22:59;2.40;;;2.20;;
2638;SDS011;1329;51.384;7.122;2023-04-24T01:25:26;2.27;;;1.97;;
2638;SDS011;1329;51.384;7.122;2023-04-24T01:27:56;2.70;;;2.50;;
2638;SDS011;1329;51.384;7.122;2023-04-24T01:30:23;2.20;;;2.00;;
2638;SDS011;1329;51.384;7.122;2023-04-24T01:32:51;2.37;;;2.10;;
2638;SDS011;1329;51.384;7.122;2023-04-24T01:35:20;2.60;;;2.20;;
2638;SDS011;1329;51.384;7.122;2023-04-24T01:37:47;2.40;;;2.20;;
2638;SDS011;1329;51.384;7.122;2023-04-24T01:40:17;3.67;;;2.40;;
2638;SDS011;1329;51.384;7.122;2023-04-24T01:42:44;2.53;;;2.30;;
2638;SDS011;1329;51.384;7.122;2023-04-24T01:45:12;3.10;;;2.50;;
2638;SDS011;1329;51.384;7.122;2023-04-24T01:47:39;2.60;;;2.40;;
2638;SDS011;1329;51.384;7.122;2023-04-24T01:50:08;2.70;;;2.10;;
2638;SDS011;1329;51.384;7.122;2023-04-24T01:52:36;2.97;;;2.67;;
2638;SDS011;1329;51.384;7.122;2023-04-24T01:55:05;2.97;;;2.70;;
2638;SDS011;1329;51.384;7.122;2023-04-24T01:57:35;2.97;;;2.77;;
2638;SDS011;1329;51.384;7.122;2023-04-24T02:00:12;4.10;;;3.73;;
2638;SDS011;1329;51.384;7.122;2023-04-24T02:02:41;4.10;;;3.70;;
2638;SDS011;1329;51.384;7.122;2023-04-24T02:05:08;5.10;;;4.60;;
2638;SDS011;1329;51.384;7.122;2023-04-24T02:07:36;7.27;;;5.47;;
2638;SDS011;1329;51.384;7.122;2023-04-24T02:10:04;5.80;;;5.30;;
2638;SDS011;1329;51.384;7.122;2023-04-24T02:12:33;6.20;;;5.60;;
2638;SDS011;1329;51.384;7.122;2023-04-24T02:15:02;7.27;;;6.57;;
2638;SDS011;1329;51.384;7.122;2023-04-24T02:17:31;6.90;;;6.20;;
2638;SDS011;1329;51.384;7.122;2023-04-24T02:19:58;7.50;;;6.20;;
2638;SDS011;1329;51.384;7.122;2023-04-24T02:22:27;6.60;;;6.00;;
2638;SDS011;1329;51.384;7.122;2023-04-24T02:24:56;6.70;;;6.00;;
2638;SDS011;1329;51.384;7.122;2023-04-24T02:27:23;7.00;;;6.30;;
2638;SDS011;1329;51.384;7.122;2023-04-24T02:29:52;6.63;;;6.03;;
2638;SDS011;1329;51.384;7.122;2023-04-24T02:32:23;6.87;;;6.17;;
2638;SDS011;1329;51.384;7.122;2023-04-24T02:34:51;8.07;;;7.37;;
2638;SDS011;1329;51.384;7.122;2023-04-24T02:37:19;8.57;;;7.63;;
2638;SDS011;1329;51.384;7.122;2023-04-24T02:39:47;8.07;;;7.27;;
2638;SDS011;1329;51.384;7.122;2023-04-24T02:42:14;8.80;;;7.90;;
2638;SDS011;1329;51.384;7.122;2023-04-24T02:44:45;8.33;;;7.53;;
2638;SDS011;1329;51.384;7.122;2023-04-24T02:47:15;9.40;;;8.50;;
2638;SDS011;1329;51.384;7.122;2023-04-24T02:49:42;9.20;;;8.30;;
2638;SDS011;1329;51.384;7.122;2023-04-24T02:52:12;9.63;;;8.33;;
2638;SDS011;1329;51.384;7.122;2023-04-24T02:54:39;8.13;;;7.33;;
2638;SDS011;1329;51.384;7.122;2023-04-24T02:57:07;9.30;;;8.40;;
2638;SDS011;1329;51.384;7.122;2023-04-24T02:59:36;9.23;;;8.07;;
2638;SDS011;1329;51.384;7.122;2023-04-24T03:02:03;10.33;;;8.73;;
2638;SDS011;1329;51.384;7.122;2023-04-24T03:04:32;10.47;;;8.77;;
2638;SDS011;1329;51.384;7.122;2023-04-24T03:06:59;9.73;;;8.37;;
2638;SDS011;1329;51.384;7.122;2023-04-24T03:09:26;8.87;;;7.97;;
2638;SDS011;1329;51.384;7.122;2023-04-24T03:11:53;9.63;;;8.50;;
2638;SDS011;1329;51.384;7.122;2023-04-24T03:14:20;9.87;;;8.63;;
2638;SDS011;1329;51.384;7.122;2023-04-24T03:16:47;11.57;;;9.57;;
2638;SDS011;1329;51.384;7.122;2023-04-24T03:19:15;10.83;;;9.63;;
2638;SDS011;1329;51.384;7.122;2023-04-24T03:21:44;9.87;;;8.87;;
2638;SDS011;1329;51.384;7.122;2023-04-24T03:24:11;11.97;;;9.80;;
2638;SDS011;1329;51.384;7.122;2023-04-24T03:26:38;12.27;;;9.57;;
2638;SDS011;1329;51.384;7.122;2023-04-24T03:29:05;10.17;;;9.07;;
2638;SDS011;1329;51.384;7.122;2023-04-24T03:31:33;12.23;;;9.90;;
2638;SDS011;1329;51.384;7.122;2023-04-24T03:34:00;11.40;;;10.20;;
2638;SDS011;1329;51.384;7.122;2023-04-24T03:36:27;11.20;;;9.93;;
2638;SDS011;1329;51.384;7.122;2023-04-24T03:38:57;11.23;;;10.13;;
2638;SDS011;1329;51.384;7.122;2023-04-24T03:41:24;11.37;;;9.83;;
2638;SDS011;1329;51.384;7.122;2023-04-24T03:43:52;11.83;;;10.30;;
2638;SDS011;1329;51.384;7.122;2023-04-24T03:46:19;11.07;;;9.87;;
2638;SDS011;1329;51.384;7.122;2023-04-24T03:48:49;11.63;;;10.33;;
2638;SDS011;1329;51.384;7.122;2023-04-24T03:51:16;12.83;;;9.97;;
2638;SDS011;1329;51.384;7.122;2023-04-24T03:53:43;11.13;;;10.03;;
2638;SDS011;1329;51.384;7.122;2023-04-24T03:56:12;13.50;;;10.67;;
2638;SDS011;1329;51.384;7.122;2023-04-24T03:58:40;11.33;;;10.13;;
2638;SDS011;1329;51.384;7.122;2023-04-24T04:01:08;11.47;;;10.37;;
2638;SDS011;1329;51.384;7.122;2023-04-24T04:03:35;10.70;;;9.70;;
2638;SDS011;1329;51.384;7.122;2023-04-24T04:06:03;12.43;;;10.27;;
2638;SDS011;1329;51.384;7.122;2023-04-24T04:08:30;10.90;;;9.80;;
2638;SDS011;1329;51.384;7.122;2023-04-24T04:10:57;11.23;;;9.43;;
2638;SDS011;1329;51.384;7.122;2023-04-24T04:13:26;11.20;;;10.07;;
2638;SDS011;1329;51.384;7.122;2023-04-24T04:15:53;11.17;;;10.13;;
2638;SDS011;1329;51.384;7.122;2023-04-24T04:18:20;10.87;;;9.87;;
2638;SDS011;1329;51.384;7.122;2023-04-24T04:20:47;12.60;;;10.50;;
2638;SDS011;1329;51.384;7.122;2023-04-24T04:23:14;10.93;;;9.83;;
2638;SDS011;1329;51.384;7.122;2023-04-24T04:25:41;11.17;;;10.07;;
2638;SDS011;1329;51.384;7.122;2023-04-24T04:28:09;11.70;;;10.30;;
2638;SDS011;1329;51.384;7.122;2023-04-24T04:30:37;11.53;;;10.33;;
2638;SDS011;1329;51.384;7.122;2023-04-24T04:33:05;11.20;;;10.13;;
2638;SDS011;1329;51.384;7.122;2023-04-24T04:35:33;12.97;;;11.13;;
2638;SDS011;1329;51.384;7.122;2023-04-24T04:38:00;11.93;;;10.73;;
2638;SDS011;1329;51.384;7.122;2023-04-24T04:40:27;12.27;;;11.07;;
2638;SDS011;1329;51.384;7.122;2023-04-24T04:42:55;12.20;;;11.00;;
2638;SDS011;1329;51.384;7.122;2023-04-24T04:45:24;13.47;;;12.17;;
2638;SDS011;1329;51.384;7.122;2023-04-24T04:47:53;13.47;;;12.13;;
2638;SDS011;1329;51.384;7.122;2023-04-24T04:50:23;12.43;;;11.23;;
2638;SDS011;1329;51.384;7.122;2023-04-24T04:52:50;11.93;;;10.73;;
2638;SDS011;1329;51.384;7.122;2023-04-24T04:55:17;11.83;;;10.63;;
2638;SDS011;1329;51.384;7.122;2023-04-24T04:57:47;11.93;;;10.50;;
2638;SDS011;1329;51.384;7.122;2023-04-24T05:00:14;12.23;;;11.03;;
2638;SDS011;1329;51.384;7.122;2023-04-24T05:02:44;11.80;;;10.70;;
2638;SDS011;1329;51.384;7.122;2023-04-24T05:05:12;11.30;;;10.20;;
2638;SDS011;1329;51.384;7.122;2023-04-24T05:07:40;11.80;;;10.60;;
2638;SDS011;1329;51.384;7.122;2023-04-24T05:10:09;11.10;;;10.00;;
2638;SDS011;1329;51.384;7.122;2023-04-24T05:12:37;10.67;;;9.57;;
2638;SDS011;1329;51.384;7.122;2023-04-24T05:15:04;10.40;;;9.37;;
2638;SDS011;1329;51.384;7.122;2023-04-24T05:17:33;11.13;;;9.20;;
2638;SDS011;1329;51.384;7.122;2023-04-24T05:20:01;11.00;;;10.00;;
2638;SDS011;1329;51.384;7.122;2023-04-24T05:22:31;11.67;;;10.47;;
2638;SDS011;1329;51.384;7.122;2023-04-24T05:24:59;10.93;;;9.80;;
2638;SDS011;1329;51.384;7.122;2023-04-24T05:27:29;10.93;;;9.80;;
2638;SDS011;1329;51.384;7.122;2023-04-24T05:29:56;10.30;;;9.30;;
2638;SDS011;1329;51.384;7.122;2023-04-24T05:32:24;10.67;;;9.57;;
2638;SDS011;1329;51.384;7.122;2023-04-24T05:34:52;10.57;;;9.50;;
2638;SDS011;1329;51.384;7.122;2023-04-24T05:37:19;11.23;;;10.03;;
2638;SDS011;1329;51.384;7.122;2023-04-24T05:39:52;11.17;;;10.00;;
2638;SDS011;1329;51.384;7.122;2023-04-24T05:42:23;13.57;;;10.53;;
2638;SDS011;1329;51.384;7.122;2023-04-24T05:44:50;11.50;;;10.40;;
2638;SDS011;1329;51.384;7.122;2023-04-24T05:47:19;11.70;;;10.50;;
2638;SDS011;1329;51.384;7.122;2023-04-24T05:49:47;11.87;;;10.67;;
2638;SDS011;1329;51.384;7.122;2023-04-24T05:52:14;11.23;;;10.07;;
2638;SDS011;1329;51.384;7.122;2023-04-24T05:54:42;11.93;;;10.73;;
2638;SDS011;1329;51.384;7.122;2023-04-24T05:57:11;10.87;;;9.87;;
2638;SDS011;1329;51.384;7.122;2023-04-24T05:59:38;11.23;;;10.00;;
2638;SDS011;1329;51.384;7.122;2023-04-24T06:02:07;12.23;;;10.23;;
2638;SDS011;1329;51.384;7.122;2023-04-24T06:04:35;10.43;;;9.43;;
2638;SDS011;1329;51.384;7.122;2023-04-24T06:07:02;10.87;;;9.77;;
2638;SDS011;1329;51.384;7.122;2023-04-24T06:09:29;10.13;;;9.23;;
2638;SDS011;1329;51.384;7.122;2023-04-24T06:11:58;10.10;;;9.10;;
2638;SDS011;1329;51.384;7.122;2023-04-24T06:14:27;9.80;;;8.90;;
2638;SDS011;1329;51.384;7.122;2023-04-24T06:16:54;9.67;;;8.70;;
2638;SDS011;1329;51.384;7.122;2023-04-24T06:19:22;10.03;;;9.03;;
2638;SDS011;1329;51.384;7.122;2023-04-24T06:21:49;9.80;;;8.80;;
2638;SDS011;1329;51.384;7.122;2023-04-24T06:24:16;9.60;;;8.70;;
2638;SDS011;1329;51.384;7.122;2023-04-24T06:26:43;9.43;;;8.53;;
2638;SDS011;1329;51.384;7.122;2023-04-24T06:29:11;9.40;;;8.30;;
2638;SDS011;1329;51.384;7.122;2023-04-24T06:31:39;8.93;;;8.10;;
2638;SDS011;1329;51.384;7.122;2023-04-24T06:34:07;9.07;;;8.13;;
2638;SDS011;1329;51.384;7.122;2023-04-24T06:36:34;9.77;;;8.80;;
2638;SDS011;1329;51.384;7.122;2023-04-24T06:39:02;9.77;;;8.87;;
2638;SDS011;1329;51.384;7.122;2023-04-24T06:41:30;10.00;;;9.00;;
2638;SDS011;1329;51.384;7.122;2023-04-24T06:43:59;9.27;;;8.37;;
2638;SDS011;1329;51.384;7.122;2023-04-24T06:46:27;9.77;;;8.60;;
2638;SDS011;1329;51.384;7.122;2023-04-24T06:49:00;9.23;;;8.33;;
2638;SDS011;1329;51.384;7.122;2023-04-24T06:51:31;9.10;;;8.30;;
2638;SDS011;1329;51.384;7.122;2023-04-24T06:54:02;8.73;;;7.93;;
2638;SDS011;1329;51.384;7.122;2023-04-24T06:56:30;8.93;;;8.03;;
2638;SDS011;1329;51.384;7.122;2023-04-24T06:58:59;9.03;;;8.13;;
2638;SDS011;1329;51.384;7.122;2023-04-24T07:01:26;8.73;;;7.97;;
2638;SDS011;1329;51.384;7.122;2023-04-24T07:03:55;8.20;;;7.40;;
2638;SDS011;1329;51.384;7.122;2023-04-24T07:06:26;7.57;;;6.77;;
2638;SDS011;1329;51.384;7.122;2023-04-24T07:08:56;7.23;;;6.53;;
2638;SDS011;1329;51.384;7.122;2023-04-24T07:11:24;7.33;;;6.63;;
2638;SDS011;1329;51.384;7.122;2023-04-24T07:13:54;6.90;;;6.20;;
2638;SDS011;1329;51.384;7.122;2023-04-24T07:16:22;5.90;;;5.40;;
2638;SDS011;1329;51.384;7.122;2023-04-24T07:18:49;5.80;;;5.30;;
2638;SDS011;1329;51.384;7.122;2023-04-24T07:21:17;5.00;;;4.60;;
2638;SDS011;1329;51.384;7.122;2023-04-24T07:23:48;5.20;;;4.80;;
2638;SDS011;1329;51.384;7.122;2023-04-24T07:26:19;5.60;;;5.10;;
2638;SDS011;1329;51.384;7.122;2023-04-24T07:28:50;6.10;;;5.50;;
2638;SDS011;1329;51.384;7.122;2023-04-24T07:31:17;5.47;;;5.03;;
2638;SDS011;1329;51.384;7.122;2023-04-24T07:33:51;4.90;;;4.50;;
2638;SDS011;1329;51.384;7.122;2023-04-24T07:36:23;4.30;;;3.90;;
2638;SDS011;1329;51.384;7.122;2023-04-24T07:42:26;5.63;;;3.30;;
2638;SDS011;1329;51.384;7.122;2023-04-24T07:44:55;3.63;;;3.33;;
2638;SDS011;1329;51.384;7.122;2023-04-24T07:47:26;3.27;;;2.97;;
2638;SDS011;1329;51.384;7.122;2023-04-24T07:49:54;2.80;;;2.60;;
2638;SDS011;1329;51.384;7.122;2023-04-24T07:52:23;2.70;;;2.50;;
2638;SDS011;1329;51.384;7.122;2023-04-24T07:54:51;2.57;;;2.30;;
2638;SDS011;1329;51.384;7.122;2023-04-24T07:57:23;2.60;;;2.40;;
2638;SDS011;1329;51.384;7.122;2023-04-24T07:59:54;2.63;;;2.43;;
2638;SDS011;1329;51.384;7.122;2023-04-24T08:02:21;2.77;;;2.57;;
2638;SDS011;1329;51.384;7.122;2023-04-24T08:04:51;3.20;;;2.90;;
2638;SDS011;1329;51.384;7.122;2023-04-24T08:07:19;2.17;;;2.00;;
2638;SDS011;1329;51.384;7.122;2023-04-24T08:09:46;1.60;;;1.50;;
2638;SDS011;1329;51.384;7.122;2023-04-24T08:12:13;1.30;;;1.20;;
2638;SDS011;1329;51.384;7.122;2023-04-24T08:14:40;1.47;;;1.07;;
2638;SDS011;1329;51.384;7.122;2023-04-24T08:17:09;1.17;;;1.07;;
2638;SDS011;1329;51.384;7.122;2023-04-24T08:19:36;2.37;;;1.10;;
2638;SDS011;1329;51.384;7.122;2023-04-24T08:22:03;1.30;;;1.20;;
2638;SDS011;1329;51.384;7.122;2023-04-24T08:24:30;1.30;;;0.90;;
2638;SDS011;1329;51.384;7.122;2023-04-24T08:26:57;1.33;;;1.23;;
2638;SDS011;1329;51.384;7.122;2023-04-24T08:29:24;1.20;;;1.10;;
2638;SDS011;1329;51.384;7.122;2023-04-24T08:31:52;1.40;;;1.30;;
2638;SDS011;1329;51.384;7.122;2023-04-24T08:34:21;2.43;;;1.30;;
2638;SDS011;1329;51.384;7.122;2023-04-24T08:36:52;1.83;;;1.20;;
2638;SDS011;1329;51.384;7.122;2023-04-24T08:39:22;1.40;;;1.10;;
2638;SDS011;1329;51.384;7.122;2023-04-24T08:41:49;1.33;;;1.20;;
2638;SDS011;1329;51.384;7.122;2023-04-24T08:44:18;1.70;;;1.40;;
2638;SDS011;1329;51.384;7.122;2023-04-24T08:46:47;1.73;;;1.50;;
2638;SDS011;1329;51.384;7.122;2023-04-24T08:49:15;1.60;;;1.50;;
2638;SDS011;1329;51.384;7.122;2023-04-24T08:51:45;1.70;;;1.40;;
2638;SDS011;1329;51.384;7.122;2023-04-24T08:54:13;2.60;;;1.43;;
2638;SDS011;1329;51.384;7.122;2023-04-24T08:56:40;1.90;;;1.50;;
2638;SDS011;1329;51.384;7.122;2023-04-24T08:59:10;1.37;;;1.27;;
2638;SDS011;1329;51.384;7.122;2023-04-24T09:01:38;1.33;;;1.23;;
2638;SDS011;1329;51.384;7.122;2023-04-24T09:04:07;1.50;;;1.40;;
2638;SDS011;1329;51.384;7.122;2023-04-24T09:06:37;1.50;;;1.40;;
2638;SDS011;1329;51.384;7.122;2023-04-24T09:09:05;1.83;;;1.40;;
2638;SDS011;1329;51.384;7.122;2023-04-24T09:11:33;1.63;;;1.47;;
2638;SDS011;1329;51.384;7.122;2023-04-24T09:14:01;1.93;;;1.50;;
2638;SDS011;1329;51.384;7.122;2023-04-24T09:16:28;1.73;;;1.60;;
2638;SDS011;1329;51.384;7.122;2023-04-24T09:18:55;1.50;;;1.40;;
2638;SDS011;1329;51.384;7.122;2023-04-24T09:21:23;1.97;;;1.60;;
2638;SDS011;1329;51.384;7.122;2023-04-24T09:23:57;1.90;;;1.53;;
2638;SDS011;1329;51.384;7.122;2023-04-24T09:26:26;3.67;;;2.20;;
2638;SDS011;1329;51.384;7.122;2023-04-24T09:28:58;2.90;;;2.03;;
2638;SDS011;1329;51.384;7.122;2023-04-24T09:31:26;3.33;;;2.00;;
2638;SDS011;1329;51.384;7.122;2023-04-24T09:33:55;2.30;;;2.10;;
2638;SDS011;1329;51.384;7.122;2023-04-24T09:36:27;2.77;;;2.57;;
2638;SDS011;1329;51.384;7.122;2023-04-24T09:38:58;3.30;;;3.03;;
2638;SDS011;1329;51.384;7.122;2023-04-24T09:41:28;3.20;;;3.00;;
2638;SDS011;1329;51.384;7.122;2023-04-24T09:43:57;3.80;;;3.50;;
2638;SDS011;1329;51.384;7.122;2023-04-24T09:46:37;4.00;;;3.60;;
2638;SDS011;1329;51.384;7.122;2023-04-24T09:49:07;5.30;;;4.17;;
2638;SDS011;1329;51.384;7.122;2023-04-24T09:51:36;4.53;;;3.83;;
2638;SDS011;1329;51.384;7.122;2023-04-24T09:54:05;4.43;;;4.03;;
2638;SDS011;1329;51.384;7.122;2023-04-24T09:56:44;3.53;;;3.23;;
2638;SDS011;1329;51.384;7.122;2023-04-24T09:59:12;3.50;;;3.20;;
2638;SDS011;1329;51.384;7.122;2023-04-24T10:01:41;3.60;;;3.30;;
2638;SDS011;1329;51.384;7.122;2023-04-24T10:04:16;3.40;;;3.10;;
2638;SDS011;1329;51.384;7.122;2023-04-24T10:06:44;4.07;;;3.60;;
2638;SDS011;1329;51.384;7.122;2023-04-24T10:09:12;4.40;;;4.00;;
2638;SDS011;1329;51.384;7.122;2023-04-24T10:11:44;4.13;;;3.83;;
2638;SDS011;1329;51.384;7.122;2023-04-24T10:14:12;4.97;;;3.80;;
2638;SDS011;1329;51.384;7.122;2023-04-24T10:16:41;5.37;;;4.50;;
2638;SDS011;1329;51.384;7.122;2023-04-24T10:19:12;5.10;;;4.60;;
2638;SDS011;1329;51.384;7.122;2023-04-24T10:21:40;4.97;;;4.50;;
2638;SDS011;1329;51.384;7.122;2023-04-24T10:24:12;4.77;;;4.37;;
2638;SDS011;1329;51.384;7.122;2023-04-24T10:26:40;5.43;;;4.90;;
2638;SDS011;1329;51.384;7.122;2023-04-24T10:29:09;5.90;;;4.97;;
2638;SDS011;1329;51.384;7.122;2023-04-24T10:31:38;5.90;;;5.30;;
2638;SDS011;1329;51.384;7.122;2023-04-24T10:34:06;6.40;;;5.07;;
2638;SDS011;1329;51.384;7.122;2023-04-24T10:36:36;6.43;;;4.90;;
2638;SDS011;1329;51.384;7.122;2023-04-24T10:39:08;6.10;;;5.07;;
2638;SDS011;1329;51.384;7.122;2023-04-24T10:41:38;5.97;;;4.83;;
2638;SDS011;1329;51.384;7.122;2023-04-24T10:44:05;5.43;;;4.90;;
2638;SDS011;1329;51.384;7.122;2023-04-24T10:46:34;6.93;;;5.00;;
2638;SDS011;1329;51.384;7.122;2023-04-24T10:49:03;6.47;;;4.93;;
2638;SDS011;1329;51.384;7.122;2023-04-24T10:51:44;6.70;;;5.70;;
2638;SDS011;1329;51.384;7.122;2023-04-24T10:54:23;9.53;;;6.23;;
2638;SDS011;1329;51.384;7.122;2023-04-24T10:56:52;7.23;;;5.60;;
2638;SDS011;1329;51.384;7.122;2023-04-24T10:59:25;7.90;;;5.90;;
2638;SDS011;1329;51.384;7.122;2023-04-24T11:01:55;6.97;;;5.70;;
2638;SDS011;1329;51.384;7.122;2023-04-24T11:04:31;9.40;;;6.10;;
2638;SDS011;1329;51.384;7.122;2023-04-24T11:07:19;6.70;;;5.03;;
2638;SDS011;1329;51.384;7.122;2023-04-24T11:09:47;8.33;;;5.47;;
2638;SDS011;1329;51.384;7.122;2023-04-24T11:12:25;6.90;;;5.03;;
2638;SDS011;1329;51.384;7.122;2023-04-24T11:15:02;6.70;;;5.00;;
2638;SDS011;1329;51.384;7.122;2023-04-24T11:17:33;10.37;;;5.53;;
2638;SDS011;1329;51.384;7.122;2023-04-24T11:20:03;7.63;;;4.87;;
2638;SDS011;1329;51.384;7.122;2023-04-24T11:22:37;7.60;;;5.30;;
2638;SDS011;1329;51.384;7.122;2023-04-24T11:25:06;7.23;;;5.30;;
2638;SDS011;1329;51.384;7.122;2023-04-24T11:27:38;8.93;;;5.70;;
2638;SDS011;1329;51.384;7.122;2023-04-24T11:30:07;7.43;;;5.63;;
2638;SDS011;1329;51.384;7.122;2023-04-24T11:32:38;9.63;;;6.00;;
2638;SDS011;1329;51.384;7.122;2023-04-24T11:35:07;8.13;;;6.37;;
2638;SDS011;1329;51.384;7.122;2023-04-24T11:37:39;9.50;;;6.97;;
2638;SDS011;1329;51.384;7.122;2023-04-24T11:40:08;10.23;;;7.10;;
2638;SDS011;1329;51.384;7.122;2023-04-24T11:42:38;8.20;;;6.70;;
2638;SDS011;1329;51.384;7.122;2023-04-24T11:45:07;11.73;;;6.90;;
2638;SDS011;1329;51.384;7.122;2023-04-24T11:47:36;7.30;;;5.90;;
2638;SDS011;1329;51.384;7.122;2023-04-24T11:50:05;8.77;;;6.33;;
2638;SDS011;1329;51.384;7.122;2023-04-24T11:52:36;10.23;;;6.80;;
2638;SDS011;1329;51.384;7.122;2023-04-24T11:55:06;9.17;;;5.93;;
2638;SDS011;1329;51.384;7.122;2023-04-24T11:57:35;8.17;;;5.90;;
2638;SDS011;1329;51.384;7.122;2023-04-24T12:02:31;9.17;;;5.63;;
2638;SDS011;1329;51.384;7.122;2023-04-24T12:04:59;10.83;;;6.10;;
2638;SDS011;1329;51.384;7.122;2023-04-24T12:07:26;11.40;;;5.70;;
2638;SDS011;1329;51.384;7.122;2023-04-24T12:09:55;8.70;;;5.93;;
2638;SDS011;1329;51.384;7.122;2023-04-24T12:12:24;8.70;;;6.10;;
2638;SDS011;1329;51.384;7.122;2023-04-24T12:14:54;10.97;;;6.33;;
2638;SDS011;1329;51.384;7.122;2023-04-24T12:17:26;11.40;;;5.87;;
2638;SDS011;1329;51.384;7.122;2023-04-24T12:20:01;8.93;;;6.00;;
2638;SDS011;1329;51.384;7.122;2023-04-24T12:22:44;7.07;;;5.97;;
2638;SDS011;1329;51.384;7.122;2023-04-24T12:25:13;7.17;;;5.60;;
2638;SDS011;1329;51.384;7.122;2023-04-24T12:27:41;6.27;;;5.07;;
2638;SDS011;1329;51.384;7.122;2023-04-24T12:30:10;8.27;;;5.40;;
2638;SDS011;1329;51.384;7.122;2023-04-24T12:32:43;8.13;;;5.33;;
2638;SDS011;1329;51.384;7.122;2023-04-24T12:35:13;7.50;;;5.10;;
2638;SDS011;1329;51.384;7.122;2023-04-24T12:37:45;7.53;;;4.30;;
2638;SDS011;1329;51.384;7.122;2023-04-24T12:40:13;7.57;;;4.77;;
2638;SDS011;1329;51.384;7.122;2023-04-24T12:42:42;5.07;;;4.30;;
2638;SDS011;1329;51.384;7.122;2023-04-24T12:45:10;6.13;;;3.90;;
2638;SDS011;1329;51.384;7.122;2023-04-24T12:47:39;7.70;;;4.93;;
2638;SDS011;1329;51.384;7.122;2023-04-24T12:50:07;8.47;;;4.33;;
2638;SDS011;1329;51.384;7.122;2023-04-24T12:52:37;4.47;;;3.50;;
2638;SDS011;1329;51.384;7.122;2023-04-24T12:55:05;5.83;;;4.10;;
2638;SDS011;1329;51.384;7.122;2023-04-24T12:57:34;5.33;;;3.93;;
2638;SDS011;1329;51.384;7.122;2023-04-24T13:00:03;5.47;;;4.33;;
2638;SDS011;1329;51.384;7.122;2023-04-24T13:02:32;6.13;;;4.20;;
2638;SDS011;1329;51.384;7.122;2023-04-24T13:05:00;4.80;;;3.80;;
2638;SDS011;1329;51.384;7.122;2023-04-24T13:07:27;5.17;;;3.90;;
2638;SDS011;1329;51.384;7.122;2023-04-24T13:09:56;4.50;;;3.47;;
2638;SDS011;1329;51.384;7.122;2023-04-24T13:12:23;4.80;;;3.43;;
2638;SDS011;1329;51.384;7.122;2023-04-24T13:14:51;5.03;;;4.00;;
2638;SDS011;1329;51.384;7.122;2023-04-24T13:17:18;3.20;;;2.80;;
2638;SDS011;1329;51.384;7.122;2023-04-24T13:19:45;4.30;;;2.73;;
2638;SDS011;1329;51.384;7.122;2023-04-24T13:22:12;3.73;;;2.60;;
2638;SDS011;1329;51.384;7.122;2023-04-24T13:24:39;4.00;;;2.77;;
2638;SDS011;1329;51.384;7.122;2023-04-24T13:27:08;3.93;;;2.80;;
2638;SDS011;1329;51.384;7.122;2023-04-24T13:29:35;4.67;;;2.73;;
2638;SDS011;1329;51.384;7.122;2023-04-24T13:32:03;3.93;;;2.63;;
2638;SDS011;1329;51.384;7.122;2023-04-24T13:34:30;3.87;;;2.87;;
2638;SDS011;1329;51.384;7.122;2023-04-24T13:36:57;3.37;;;2.50;;
2638;SDS011;1329;51.384;7.122;2023-04-24T13:39:24;4.80;;;2.53;;
2638;SDS011;1329;51.384;7.122;2023-04-24T13:41:52;3.83;;;2.47;;
2638;SDS011;1329;51.384;7.122;2023-04-24T13:44:21;3.83;;;2.60;;
2638;SDS011;1329;51.384;7.122;2023-04-24T13:46:49;5.03;;;2.40;;
2638;SDS011;1329;51.384;7.122;2023-04-24T13:49:21;4.17;;;2.40;;
2638;SDS011;1329;51.384;7.122;2023-04-24T13:51:50;3.53;;;2.23;;
2638;SDS011;1329;51.384;7.122;2023-04-24T13:54:17;3.83;;;2.20;;
2638;SDS011;1329;51.384;7.122;2023-04-24T13:56:45;2.77;;;1.87;;
2638;SDS011;1329;51.384;7.122;2023-04-24T13:59:12;3.87;;;2.00;;
2638;SDS011;1329;51.384;7.122;2023-04-24T14:01:40;2.83;;;1.83;;
2638;SDS011;1329;51.384;7.122;2023-04-24T14:04:07;2.43;;;1.97;;
2638;SDS011;1329;51.384;7.122;2023-04-24T14:06:34;2.50;;;2.30;;
2638;SDS011;1329;51.384;7.122;2023-04-24T14:09:01;4.43;;;2.43;;
2638;SDS011;1329;51.384;7.122;2023-04-24T14:11:28;4.13;;;2.20;;
2638;SDS011;1329;51.384;7.122;2023-04-24T14:13:55;3.17;;;2.30;;
2638;SDS011;1329;51.384;7.122;2023-04-24T14:16:22;4.00;;;2.33;;
2638;SDS011;1329;51.384;7.122;2023-04-24T14:18:51;2.57;;;2.30;;
2638;SDS011;1329;51.384;7.122;2023-04-24T14:21:18;3.13;;;2.37;;
2638;SDS011;1329;51.384;7.122;2023-04-24T14:23:44;3.40;;;2.13;;
2638;SDS011;1329;51.384;7.122;2023-04-24T14:26:11;3.30;;;2.33;;
2638;SDS011;1329;51.384;7.122;2023-04-24T14:28:38;3.67;;;2.60;;
2638;SDS011;1329;51.384;7.122;2023-04-24T14:31:05;3.28;;;1.98;;
2638;SDS011;1329;51.384;7.122;2023-04-24T14:33:33;2.58;;;2.17;;
2638;SDS011;1329;51.384;7.122;2023-04-24T14:36:01;2.65;;;1.60;;
2638;SDS011;1329;51.384;7.122;2023-04-24T14:38:30;2.60;;;1.67;;
2638;SDS011;1329;51.384;7.122;2023-04-24T14:40:57;2.85;;;1.50;;
2638;SDS011;1329;51.384;7.122;2023-04-24T14:43:24;1.63;;;1.45;;
2638;SDS011;1329;51.384;7.122;2023-04-24T14:45:51;3.13;;;1.50;;
2638;SDS011;1329;51.384;7.122;2023-04-24T14:48:18;2.60;;;1.67;;
2638;SDS011;1329;51.384;7.122;2023-04-24T14:50:44;2.53;;;1.58;;
2638;SDS011;1329;51.384;7.122;2023-04-24T14:53:13;1.98;;;1.77;;
2638;SDS011;1329;51.384;7.122;2023-04-24T14:55:41;1.90;;;1.58;;
2638;SDS011;1329;51.384;7.122;2023-04-24T14:58:08;1.90;;;1.73;;
2638;SDS011;1329;51.384;7.122;2023-04-24T15:00:35;2.55;;;1.67;;
2638;SDS011;1329;51.384;7.122;2023-04-24T15:03:02;2.00;;;1.57;;
2638;SDS011;1329;51.384;7.122;2023-04-24T15:05:29;2.77;;;1.50;;
2638;SDS011;1329;51.384;7.122;2023-04-24T15:07:57;2.13;;;1.60;;
2638;SDS011;1329;51.384;7.122;2023-04-24T15:10:25;3.00;;;1.70;;
2638;SDS011;1329;51.384;7.122;2023-04-24T15:12:52;1.97;;;1.47;;
2638;SDS011;1329;51.384;7.122;2023-04-24T15:15:19;2.17;;;1.30;;
2638;SDS011;1329;51.384;7.122;2023-04-24T15:17:46;1.60;;;1.50;;
2638;SDS011;1329;51.384;7.122;2023-04-24T15:20:13;2.27;;;1.60;;
2638;SDS011;1329;51.384;7.122;2023-04-24T15:22:40;3.20;;;1.80;;
2638;SDS011;1329;51.384;7.122;2023-04-24T15:25:07;2.25;;;1.77;;
2638;SDS011;1329;51.384;7.122;2023-04-24T15:27:42;2.40;;;1.47;;
2638;SDS011;1329;51.384;7.122;2023-04-24T15:30:10;1.97;;;1.40;;
2638;SDS011;1329;51.384;7.122;2023-04-24T15:32:38;1.60;;;1.50;;